createdAt,value
2019-01-21T00:00:03.749Z,35.33
2019-01-21T00:02:33.216Z,34.83
2019-01-21T00:05:01.827Z,34.67
2019-01-21T00:07:29.510Z,35.83
2019-01-21T00:09:57.093Z,35.57
2019-01-21T00:12:24.816Z,34.30
2019-01-21T00:14:52.539Z,34.67
2019-01-21T00:17:22.376Z,34.70
2019-01-21T00:19:49.718Z,35.77
2019-01-21T00:22:17.436Z,34.87
2019-01-21T00:24:45.007Z,35.07
2019-01-21T00:27:12.697Z,33.93
2019-01-21T00:29:42.086Z,34.80
2019-01-21T00:32:09.759Z,35.90
2019-01-21T00:34:37.344Z,32.10
2019-01-21T00:37:04.991Z,36.10
2019-01-21T00:39:32.588Z,33.70
2019-01-21T00:42:00.296Z,34.07
2019-01-21T00:44:27.887Z,35.47
2019-01-21T00:46:55.618Z,34.00
2019-01-21T00:49:23.169Z,34.97
2019-01-21T00:51:50.871Z,35.43
2019-01-21T00:54:18.482Z,33.03
2019-01-21T00:56:46.154Z,37.57
2019-01-21T00:59:13.737Z,37.27
2019-01-21T01:01:41.412Z,33.53
2019-01-21T01:04:09.040Z,35.03
2019-01-21T01:06:36.709Z,34.17
2019-01-21T01:09:06.339Z,34.73
2019-01-21T01:11:33.979Z,35.87
2019-01-21T01:14:01.580Z,35.47
2019-01-21T01:16:29.243Z,36.93
2019-01-21T01:18:56.893Z,36.60
2019-01-21T01:21:24.486Z,34.20
2019-01-21T01:23:52.095Z,36.17
2019-01-21T01:26:19.729Z,35.20
2019-01-21T01:28:47.379Z,34.70
2019-01-21T01:31:14.986Z,35.27
2019-01-21T01:33:42.689Z,34.70
2019-01-21T01:36:10.290Z,35.33
2019-01-21T01:38:37.950Z,35.00
2019-01-21T01:41:05.557Z,35.43
2019-01-21T01:43:33.241Z,34.60
2019-01-21T01:46:00.819Z,34.10
2019-01-21T01:48:28.511Z,33.63
2019-01-21T01:50:58.986Z,34.13
2019-01-21T01:53:26.917Z,36.23
2019-01-21T01:55:55.440Z,35.57
2019-01-21T01:58:23.121Z,35.07
2019-01-21T02:00:50.723Z,35.93
2019-01-21T02:03:18.396Z,34.07
2019-01-21T02:05:45.989Z,33.97
2019-01-21T02:08:13.985Z,35.63
2019-01-21T02:10:41.600Z,33.90
2019-01-21T02:13:09.232Z,35.87
2019-01-21T02:15:37.191Z,35.83
2019-01-21T02:18:04.840Z,36.70
2019-01-21T02:20:35.277Z,36.37
2019-01-21T02:23:04.483Z,34.03
2019-01-21T02:25:48.147Z,35.60
2019-01-21T02:28:19.206Z,35.97
2019-01-21T02:31:28.239Z,34.10
2019-01-21T02:34:32.017Z,35.17
2019-01-21T02:37:31.977Z,36.07
2019-01-21T02:40:23.135Z,34.47
2019-01-21T02:43:32.232Z,37.23
2019-01-21T02:47:01.022Z,36.20
2019-01-21T02:50:02.776Z,36.07
2019-01-21T02:53:33.624Z,35.33
2019-01-21T02:56:58.221Z,36.93
2019-01-21T03:00:09.803Z,37.07
2019-01-21T03:03:34.317Z,35.90
2019-01-21T03:06:27.790Z,33.83
2019-01-21T03:09:31.979Z,36.77
2019-01-21T03:12:40.620Z,37.63
2019-01-21T03:15:50.133Z,36.53
2019-01-21T03:18:54.179Z,37.53
2019-01-21T03:21:35.679Z,37.43
2019-01-21T03:24:33.433Z,36.10
2019-01-21T03:27:54.668Z,37.97
2019-01-21T03:30:50.750Z,36.70
2019-01-21T03:33:46.481Z,36.00
2019-01-21T03:36:34.329Z,38.73
2019-01-21T03:39:38.300Z,35.57
2019-01-21T03:42:19.645Z,39.30
2019-01-21T03:45:23.805Z,37.03
2019-01-21T03:48:23.344Z,36.37
2019-01-21T03:51:27.204Z,37.90
2019-01-21T03:54:25.545Z,37.93
2019-01-21T03:57:05.876Z,37.10
2019-01-21T03:59:51.814Z,38.77
2019-01-21T04:03:02.806Z,38.67
2019-01-21T04:05:36.419Z,38.63
2019-01-21T04:08:51.058Z,37.07
2019-01-21T04:12:06.736Z,37.67
2019-01-21T04:15:24.433Z,37.57
2019-01-21T04:18:40.466Z,37.33
2019-01-21T04:22:02.322Z,38.13
2019-01-21T04:25:11.715Z,37.53
2019-01-21T04:28:08.923Z,38.73
2019-01-21T04:31:07.337Z,36.93
2019-01-21T04:34:34.781Z,38.17
2019-01-21T04:37:34.840Z,39.90
2019-01-21T04:40:15.412Z,37.67
2019-01-21T04:43:15.022Z,39.23
2019-01-21T04:46:03.651Z,37.67
2019-01-21T04:49:00.529Z,37.80
2019-01-21T04:52:02.153Z,36.27
2019-01-21T04:54:54.449Z,37.13
2019-01-21T04:57:58.247Z,36.83
2019-01-21T05:01:23.313Z,36.87
2019-01-21T05:04:29.406Z,37.30
2019-01-21T05:07:10.824Z,38.27
2019-01-21T05:09:51.924Z,37.67
2019-01-21T05:12:40.854Z,36.87
2019-01-21T05:15:46.250Z,36.90
2019-01-21T05:19:00.356Z,36.97
2019-01-21T05:22:23.823Z,37.17
2019-01-21T05:25:28.044Z,37.37
2019-01-21T05:28:48.244Z,36.30
2019-01-21T05:31:47.476Z,38.37
2019-01-21T05:35:05.264Z,37.30
2019-01-21T05:38:13.826Z,36.37
2019-01-21T05:41:19.813Z,37.17
2019-01-21T05:44:26.598Z,37.47
2019-01-21T05:47:53.784Z,39.07
2019-01-21T05:51:27.468Z,37.30
2019-01-21T05:54:45.382Z,38.23
2019-01-21T05:57:49.380Z,38.73
2019-01-21T06:01:07.594Z,36.53
2019-01-21T06:04:23.148Z,37.10
2019-01-21T06:07:04.403Z,36.70
2019-01-21T06:09:51.514Z,37.03
2019-01-21T06:12:47.990Z,35.97
2019-01-21T06:16:05.610Z,38.07
2019-01-21T06:19:24.078Z,35.87
2019-01-21T06:22:42.227Z,37.20
2019-01-21T06:26:01.342Z,37.67
2019-01-21T06:28:55.022Z,37.23
2019-01-21T06:32:07.383Z,35.87
2019-01-21T06:35:12.734Z,37.80
2019-01-21T06:38:18.196Z,39.13
2019-01-21T06:41:12.781Z,35.30
2019-01-21T06:44:17.620Z,36.47
2019-01-21T06:47:35.263Z,37.33
2019-01-21T06:50:52.874Z,39.53
2019-01-21T06:54:04.003Z,35.90
2019-01-21T06:57:12.318Z,37.53
2019-01-21T07:00:21.082Z,39.40
2019-01-21T07:03:31.609Z,39.40
2019-01-21T07:06:22.715Z,38.43
2019-01-21T07:09:15.671Z,40.30
2019-01-21T07:12:05.316Z,38.43
2019-01-21T07:15:11.824Z,38.20
2019-01-21T07:18:17.046Z,37.93
2019-01-21T07:21:19.956Z,36.27
2019-01-21T07:24:10.140Z,37.87
2019-01-21T07:27:15.456Z,39.20
2019-01-21T07:30:01.343Z,37.20
2019-01-21T07:32:50.946Z,38.47
2019-01-21T07:35:57.381Z,35.77
2019-01-21T07:38:56.349Z,36.73
2019-01-21T07:41:47.099Z,37.20
2019-01-21T07:44:37.007Z,36.30
2019-01-21T07:47:38.116Z,37.77
2019-01-21T07:50:30.219Z,37.27
2019-01-21T07:53:34.405Z,38.13
2019-01-21T07:56:42.581Z,38.47
2019-01-21T07:59:47.807Z,37.60
2019-01-21T08:03:15.354Z,38.17
2019-01-21T08:06:20.680Z,38.97
2019-01-21T08:09:20.350Z,39.67
2019-01-21T08:12:32.473Z,37.27
2019-01-21T08:15:26.278Z,38.57
2019-01-21T08:18:35.666Z,36.30
2019-01-21T08:21:17.704Z,38.20
2019-01-21T08:24:03.411Z,38.30
2019-01-21T08:27:18.767Z,36.80
2019-01-21T08:30:34.084Z,36.13
2019-01-21T08:33:23.119Z,40.07
2019-01-21T08:36:31.115Z,36.90
2019-01-21T08:39:21.063Z,39.73
2019-01-21T08:42:39.280Z,38.40
2019-01-21T08:45:39.267Z,39.23
2019-01-21T08:48:38.394Z,38.27
2019-01-21T08:51:51.194Z,39.40
2019-01-21T08:54:32.398Z,38.43
2019-01-21T08:57:36.417Z,38.30
2019-01-21T09:00:54.018Z,39.43
2019-01-21T09:04:12.065Z,38.33
2019-01-21T09:07:15.618Z,39.40
2019-01-21T09:10:12.083Z,40.03
2019-01-21T09:13:10.195Z,38.60
2019-01-21T09:16:30.380Z,40.00
2019-01-21T09:19:27.107Z,39.53
2019-01-21T09:22:04.492Z,39.20
2019-01-21T09:25:17.233Z,41.70
2019-01-21T09:28:06.094Z,40.13
2019-01-21T09:31:27.249Z,40.00
2019-01-21T09:34:33.034Z,39.43
2019-01-21T09:37:26.024Z,38.00
2019-01-21T09:40:30.894Z,39.90
2019-01-21T09:43:17.674Z,40.50
2019-01-21T09:46:08.563Z,39.97
2019-01-21T09:48:35.041Z,38.73
2019-01-21T09:51:05.215Z,39.43
2019-01-21T09:53:33.231Z,38.50
2019-01-21T09:56:00.947Z,38.83
2019-01-21T09:58:29.134Z,40.43
2019-01-21T10:00:58.263Z,39.67
2019-01-21T10:03:25.895Z,39.20
2019-01-21T10:05:57.009Z,38.57
2019-01-21T10:08:58.700Z,40.03
2019-01-21T10:11:45.187Z,39.90
2019-01-21T10:14:46.380Z,41.93
2019-01-21T10:18:07.212Z,40.37
2019-01-21T10:21:22.747Z,40.13
2019-01-21T10:24:25.990Z,39.83
2019-01-21T10:27:34.620Z,40.63
2019-01-21T10:30:44.010Z,41.10
2019-01-21T10:33:52.463Z,38.37
2019-01-21T10:37:17.412Z,39.40
2019-01-21T10:40:25.992Z,39.67
2019-01-21T10:43:40.735Z,40.33
2019-01-21T10:46:17.945Z,40.17
2019-01-21T10:49:36.468Z,38.80
2019-01-21T10:52:49.321Z,39.40
2019-01-21T10:55:56.241Z,40.03
2019-01-21T10:58:37.066Z,40.53
2019-01-21T11:02:05.034Z,40.60
2019-01-21T11:05:17.325Z,38.70
2019-01-21T11:08:40.799Z,39.87
2019-01-21T11:11:56.201Z,39.40
2019-01-21T11:15:08.448Z,39.63
2019-01-21T11:18:17.155Z,40.33
2019-01-21T11:21:18.998Z,41.47
2019-01-21T11:24:49.828Z,41.87
2019-01-21T11:27:55.257Z,41.33
2019-01-21T11:31:05.921Z,42.10
2019-01-21T11:33:56.703Z,42.03
2019-01-21T11:36:57.786Z,41.40
2019-01-21T11:40:05.575Z,41.60
2019-01-21T11:43:23.821Z,41.63
2019-01-21T11:46:21.755Z,41.13
2019-01-21T11:49:15.822Z,41.23
2019-01-21T11:52:17.795Z,41.87
2019-01-21T11:55:33.476Z,41.17
2019-01-21T11:58:58.184Z,39.60
2019-01-21T12:01:55.730Z,41.07
2019-01-21T12:04:54.167Z,39.43
2019-01-21T12:07:50.478Z,39.00
2019-01-21T12:10:42.177Z,38.10
2019-01-21T12:13:22.421Z,39.50
2019-01-21T12:16:25.645Z,40.07
2019-01-21T12:19:26.912Z,39.50
2019-01-21T12:22:29.806Z,38.63
2019-01-21T12:25:11.244Z,34.87
2019-01-21T12:28:07.011Z,35.50
2019-01-21T12:31:05.564Z,35.73
2019-01-21T12:33:58.694Z,39.43
2019-01-21T12:36:50.957Z,37.77
2019-01-21T12:40:06.678Z,37.97
2019-01-21T12:42:51.398Z,36.53
2019-01-21T12:45:53.754Z,38.17
2019-01-21T12:49:05.421Z,35.90
2019-01-21T12:52:02.012Z,33.07
2019-01-21T12:54:46.461Z,33.70
2019-01-21T12:57:54.691Z,31.90
2019-01-21T13:00:44.511Z,31.33
2019-01-21T13:03:59.271Z,33.00
2019-01-21T13:07:08.670Z,36.10
2019-01-21T13:10:42.587Z,33.53
2019-01-21T13:13:51.028Z,32.60
2019-01-21T13:17:00.630Z,32.47
2019-01-21T13:19:54.966Z,34.27
2019-01-21T13:23:10.439Z,33.03
2019-01-21T13:26:08.580Z,36.00
2019-01-21T13:29:10.550Z,34.13
2019-01-21T13:32:28.979Z,33.97
2019-01-21T13:35:31.822Z,31.10
2019-01-21T13:38:43.097Z,32.43
2019-01-21T13:41:39.710Z,31.67
2019-01-21T13:44:48.146Z,29.60
2019-01-21T13:48:13.576Z,26.77
2019-01-21T13:51:20.996Z,26.67
2019-01-21T13:54:31.303Z,29.60
2019-01-21T13:57:25.434Z,28.10
2019-01-21T14:00:30.088Z,28.57
2019-01-21T14:03:38.349Z,29.83
2019-01-21T14:06:25.192Z,27.87
2019-01-21T14:09:42.387Z,26.70
2019-01-21T14:12:21.920Z,26.70
2019-01-21T14:15:18.174Z,25.93
2019-01-21T14:18:23.428Z,24.73
2019-01-21T14:21:00.760Z,24.03
2019-01-21T14:24:21.367Z,25.53
2019-01-21T14:27:29.160Z,27.73
2019-01-21T14:30:41.727Z,27.37
2019-01-21T14:33:35.005Z,26.63
2019-01-21T14:37:02.733Z,26.80
2019-01-21T14:39:42.252Z,26.63
2019-01-21T14:42:55.054Z,25.30
2019-01-21T14:45:51.206Z,26.50
2019-01-21T14:49:04.612Z,26.73
2019-01-21T14:52:18.242Z,25.57
2019-01-21T14:55:00.431Z,25.47
2019-01-21T14:58:09.991Z,25.10
2019-01-21T15:01:22.345Z,24.23
2019-01-21T15:04:44.095Z,25.57
2019-01-21T15:07:22.914Z,25.73
2019-01-21T15:10:19.836Z,24.57
2019-01-21T15:13:10.884Z,25.83
2019-01-21T15:15:56.952Z,25.60
2019-01-21T15:18:55.937Z,26.60
2019-01-21T15:22:20.584Z,26.67
2019-01-21T15:25:29.873Z,26.87
2019-01-21T15:28:41.372Z,25.00
2019-01-21T15:32:06.767Z,26.67
2019-01-21T15:34:53.850Z,25.03
2019-01-21T15:38:00.378Z,26.03
2019-01-21T15:41:28.280Z,25.03
2019-01-21T15:44:11.420Z,26.83
2019-01-21T15:47:08.684Z,27.07
2019-01-21T15:49:55.215Z,25.33
2019-01-21T15:52:32.235Z,26.03
2019-01-21T15:55:46.381Z,27.63
2019-01-21T15:58:45.189Z,28.43
2019-01-21T16:01:46.923Z,28.30
2019-01-21T16:04:37.806Z,29.27
2019-01-21T16:07:28.823Z,28.87
2019-01-21T16:10:47.502Z,27.77
2019-01-21T16:13:48.640Z,28.37
2019-01-21T16:16:40.954Z,27.77
2019-01-21T16:19:17.855Z,26.20
2019-01-21T16:22:32.177Z,25.20
2019-01-21T16:25:35.148Z,28.20
2019-01-21T16:28:31.154Z,28.63
2019-01-21T16:31:23.509Z,29.20
2019-01-21T16:34:24.591Z,27.83
2019-01-21T16:37:17.576Z,26.13
2019-01-21T16:40:28.671Z,28.70
2019-01-21T16:42:56.418Z,31.87
2019-01-21T16:45:24.158Z,34.57
2019-01-21T16:47:51.932Z,34.77
2019-01-21T16:50:19.636Z,37.10
2019-01-21T16:52:50.183Z,36.07
2019-01-21T16:55:18.043Z,37.40
2019-01-21T16:57:45.964Z,37.83
2019-01-21T17:00:14.507Z,35.23
2019-01-21T17:02:42.349Z,34.87
2019-01-21T17:05:10.488Z,33.33
2019-01-21T17:07:38.246Z,33.87
2019-01-21T17:10:07.782Z,32.43
2019-01-21T17:12:35.952Z,31.33
2019-01-21T17:15:07.170Z,29.63
2019-01-21T17:17:34.975Z,32.40
2019-01-21T17:20:03.812Z,30.60
2019-01-21T17:22:31.643Z,31.10
2019-01-21T17:24:59.523Z,32.40
2019-01-21T17:27:27.309Z,32.07
2019-01-21T17:29:55.199Z,29.77
2019-01-21T17:32:23.980Z,32.00
2019-01-21T17:34:51.912Z,31.77
2019-01-21T17:37:19.740Z,32.23
2019-01-21T17:39:47.737Z,31.83
2019-01-21T17:42:15.652Z,30.60
2019-01-21T17:44:43.845Z,31.37
2019-01-21T17:47:13.271Z,33.07
2019-01-21T17:49:41.135Z,31.90
2019-01-21T17:52:09.283Z,32.60
2019-01-21T17:54:37.143Z,32.83
2019-01-21T17:57:05.206Z,30.87
2019-01-21T17:59:32.999Z,33.83
2019-01-21T18:02:00.930Z,31.17
2019-01-21T18:04:28.995Z,32.87
2019-01-21T18:06:56.930Z,30.93
2019-01-21T18:09:24.882Z,29.63
2019-01-21T18:11:52.879Z,30.13
2019-01-21T18:14:20.748Z,31.53
2019-01-21T18:16:48.613Z,32.47
2019-01-21T18:19:16.497Z,28.57
2019-01-21T18:21:44.360Z,31.00
2019-01-21T18:24:12.234Z,30.23
2019-01-21T18:26:40.051Z,30.33
2019-01-21T18:29:07.959Z,30.10
2019-01-21T18:31:35.765Z,29.83
2019-01-21T18:34:04.785Z,29.27
2019-01-21T18:36:33.676Z,27.17
2019-01-21T18:39:07.534Z,29.30
2019-01-21T18:41:37.761Z,29.87
2019-01-21T18:44:05.963Z,31.63
2019-01-21T18:46:34.766Z,31.87
2019-01-21T18:49:03.142Z,31.17
2019-01-21T18:51:33.233Z,32.37
2019-01-21T18:54:01.098Z,29.27
2019-01-21T18:56:29.642Z,31.00
2019-01-21T18:58:57.619Z,31.70
2019-01-21T19:01:27.659Z,33.60
2019-01-21T19:03:55.493Z,34.20
2019-01-21T19:06:23.541Z,32.33
2019-01-21T19:08:51.464Z,34.43
2019-01-21T19:11:19.399Z,32.03
2019-01-21T19:13:47.292Z,33.77
2019-01-21T19:16:15.765Z,32.03
2019-01-21T19:18:43.691Z,33.80
2019-01-21T19:21:11.487Z,34.07
2019-01-21T19:23:40.430Z,33.93
2019-01-21T19:26:08.332Z,31.53
2019-01-21T19:28:36.288Z,33.07
2019-01-21T19:31:04.119Z,34.80
2019-01-21T19:33:32.016Z,33.77
2019-01-21T19:36:00.855Z,29.23
2019-01-21T19:38:28.749Z,27.83
2019-01-21T19:40:56.683Z,32.77
2019-01-21T19:43:24.908Z,33.17
2019-01-21T19:45:53.464Z,32.43
2019-01-21T19:48:21.337Z,35.53
2019-01-21T19:50:49.260Z,33.10
2019-01-21T19:53:17.100Z,31.83
2019-01-21T19:55:45.300Z,34.47
2019-01-21T19:58:13.452Z,32.83
2019-01-21T20:00:41.566Z,34.27
2019-01-21T20:03:09.855Z,33.30
2019-01-21T20:05:38.817Z,35.37
2019-01-21T20:08:07.436Z,34.47
2019-01-21T20:10:35.775Z,35.60
2019-01-21T20:13:03.994Z,35.33
2019-01-21T20:15:32.066Z,34.37
2019-01-21T20:18:01.414Z,33.80
2019-01-21T20:20:31.817Z,35.77
2019-01-21T20:22:59.878Z,35.80
2019-01-21T20:25:27.635Z,34.57
2019-01-21T20:27:55.936Z,36.47
2019-01-21T20:30:23.992Z,37.83
2019-01-21T20:32:52.081Z,37.33
2019-01-21T20:35:20.148Z,35.73
2019-01-21T20:37:48.350Z,36.10
2019-01-21T20:40:18.763Z,35.40
2019-01-21T20:42:47.281Z,37.90
2019-01-21T20:45:16.789Z,35.87
2019-01-21T20:47:44.820Z,35.47
2019-01-21T20:50:16.046Z,37.27
2019-01-21T20:52:44.522Z,35.80
2019-01-21T20:55:12.891Z,34.73
2019-01-21T20:57:41.042Z,32.37
2019-01-21T21:00:15.422Z,33.30
2019-01-21T21:02:43.637Z,31.57
2019-01-21T21:05:11.971Z,31.53
2019-01-21T21:07:39.629Z,33.03
2019-01-21T21:10:08.219Z,35.07
2019-01-21T21:12:37.019Z,35.13
2019-01-21T21:15:08.015Z,35.90
2019-01-21T21:17:36.182Z,35.97
2019-01-21T21:20:04.728Z,33.47
2019-01-21T21:22:32.371Z,33.10
2019-01-21T21:25:00.245Z,33.17
2019-01-21T21:27:28.401Z,31.33
2019-01-21T21:29:56.143Z,32.53
2019-01-21T21:32:23.949Z,32.20
2019-01-21T21:34:51.829Z,32.57
2019-01-21T21:37:19.973Z,33.23
2019-01-21T21:39:47.541Z,33.57
2019-01-21T21:42:15.128Z,33.50
2019-01-21T21:44:43.179Z,33.67
2019-01-21T21:47:10.731Z,32.70
2019-01-21T21:49:38.298Z,39.90
2019-01-21T21:52:05.990Z,38.83
2019-01-21T21:54:33.534Z,37.77
2019-01-21T21:57:01.344Z,37.13
2019-01-21T21:59:28.868Z,35.63
2019-01-21T22:01:56.701Z,35.93
2019-01-21T22:04:24.327Z,34.90
2019-01-21T22:06:53.005Z,33.07
2019-01-21T22:09:20.785Z,31.33
2019-01-21T22:11:48.601Z,31.57
2019-01-21T22:14:16.205Z,32.67
2019-01-21T22:16:43.964Z,32.53
2019-01-21T22:19:11.823Z,34.10
2019-01-21T22:21:39.398Z,33.57
2019-01-21T22:24:07.515Z,32.83
2019-01-21T22:26:35.520Z,33.83
2019-01-21T22:29:03.347Z,34.27
2019-01-21T22:31:31.378Z,34.80
2019-01-21T22:33:59.771Z,33.67
2019-01-21T22:36:27.766Z,34.90
2019-01-21T22:38:57.868Z,40.73
2019-01-21T22:41:25.776Z,45.13
2019-01-21T22:43:54.131Z,50.83
2019-01-21T22:46:22.067Z,46.90
2019-01-21T22:48:49.966Z,43.37
2019-01-21T22:51:18.228Z,41.93
2019-01-21T22:53:46.417Z,43.07
2019-01-21T22:56:14.423Z,40.47
2019-01-21T22:58:42.349Z,41.70
2019-01-21T23:01:35.721Z,41.00
2019-01-21T23:04:03.891Z,39.63
2019-01-21T23:06:31.864Z,41.43
2019-01-21T23:08:59.711Z,40.67
2019-01-21T23:11:27.743Z,40.23
2019-01-21T23:13:56.193Z,41.07
2019-01-21T23:16:24.161Z,38.90
2019-01-21T23:18:52.000Z,40.97
2019-01-21T23:21:20.039Z,39.33
2019-01-21T23:23:47.843Z,38.83
2019-01-21T23:26:15.828Z,39.77
2019-01-21T23:28:43.773Z,40.37
2019-01-21T23:31:11.853Z,38.97
2019-01-21T23:33:39.634Z,37.30
2019-01-21T23:36:07.780Z,39.60
2019-01-21T23:38:35.535Z,39.23
2019-01-21T23:41:03.629Z,40.33
2019-01-21T23:43:32.089Z,38.10
2019-01-21T23:46:01.641Z,38.83
2019-01-21T23:48:29.619Z,39.80
2019-01-21T23:50:57.762Z,38.83
2019-01-21T23:53:25.585Z,38.87
2019-01-21T23:55:53.629Z,38.60
2019-01-21T23:58:21.964Z,40.43
